sensor_id;sensor_type;location;lat;lon;timestamp;P1;durP1;ratioP1;P2;durP2;ratioP2
72437;SDS011;60444;43.534;-5.674;2024-03-08T00:00:42;4.53;;;1.17;;
72437;SDS011;60444;43.534;-5.674;2024-03-08T00:03:08;2.67;;;0.53;;
72437;SDS011;60444;43.534;-5.674;2024-03-08T00:05:35;3.65;;;0.73;;
72437;SDS011;60444;43.534;-5.674;2024-03-08T00:08:01;2.47;;;0.77;;
72437;SDS011;60444;43.534;-5.674;2024-03-08T00:10:27;4.30;;;0.60;;
72437;SDS011;60444;43.534;-5.674;2024-03-08T00:12:54;2.65;;;0.70;;
72437;SDS011;60444;43.534;-5.674;2024-03-08T00:15:19;4.10;;;0.70;;
72437;SDS011;60444;43.534;-5.674;2024-03-08T00:17:48;2.97;;;0.65;;
72437;SDS011;60444;43.534;-5.674;2024-03-08T00:20:17;5.03;;;0.80;;
72437;SDS011;60444;43.534;-5.674;2024-03-08T00:22:45;3.72;;;0.60;;
72437;SDS011;60444;43.534;-5.674;2024-03-08T00:25:11;3.00;;;0.80;;
72437;SDS011;60444;43.534;-5.674;2024-03-08T00:27:40;3.15;;;0.75;;
72437;SDS011;60444;43.534;-5.674;2024-03-08T00:30:08;3.03;;;0.70;;
72437;SDS011;60444;43.534;-5.674;2024-03-08T00:32:34;2.97;;;0.50;;
72437;SDS011;60444;43.534;-5.674;2024-03-08T00:35:01;2.00;;;0.50;;
72437;SDS011;60444;43.534;-5.674;2024-03-08T00:37:26;2.45;;;0.70;;
72437;SDS011;60444;43.534;-5.674;2024-03-08T00:39:52;3.60;;;0.70;;
72437;SDS011;60444;43.534;-5.674;2024-03-08T00:42:18;3.67;;;0.70;;
72437;SDS011;60444;43.534;-5.674;2024-03-08T00:44:44;3.15;;;0.68;;
72437;SDS011;60444;43.534;-5.674;2024-03-08T00:47:10;2.47;;;0.70;;
72437;SDS011;60444;43.534;-5.674;2024-03-08T00:49:36;3.37;;;0.60;;
72437;SDS011;60444;43.534;-5.674;2024-03-08T00:52:03;4.50;;;1.08;;
72437;SDS011;60444;43.534;-5.674;2024-03-08T00:54:33;3.38;;;0.70;;
72437;SDS011;60444;43.534;-5.674;2024-03-08T00:56:59;2.75;;;0.50;;
72437;SDS011;60444;43.534;-5.674;2024-03-08T00:59:30;3.17;;;0.93;;
72437;SDS011;60444;43.534;-5.674;2024-03-08T01:01:59;3.83;;;0.80;;
72437;SDS011;60444;43.534;-5.674;2024-03-08T01:04:25;3.00;;;0.60;;
72437;SDS011;60444;43.534;-5.674;2024-03-08T01:06:53;2.33;;;0.45;;
72437;SDS011;60444;43.534;-5.674;2024-03-08T01:09:21;4.65;;;0.60;;
72437;SDS011;60444;43.534;-5.674;2024-03-08T01:11:48;2.47;;;0.55;;
72437;SDS011;60444;43.534;-5.674;2024-03-08T01:14:14;2.00;;;0.60;;
72437;SDS011;60444;43.534;-5.674;2024-03-08T01:16:40;2.47;;;0.40;;
72437;SDS011;60444;43.534;-5.674;2024-03-08T01:19:06;2.60;;;0.63;;
72437;SDS011;60444;43.534;-5.674;2024-03-08T01:21:31;2.40;;;0.50;;
72437;SDS011;60444;43.534;-5.674;2024-03-08T01:23:57;2.23;;;0.50;;
72437;SDS011;60444;43.534;-5.674;2024-03-08T01:26:23;1.60;;;0.40;;
72437;SDS011;60444;43.534;-5.674;2024-03-08T01:28:49;1.83;;;0.43;;
72437;SDS011;60444;43.534;-5.674;2024-03-08T01:31:14;2.38;;;0.50;;
72437;SDS011;60444;43.534;-5.674;2024-03-08T01:33:41;1.88;;;0.70;;
72437;SDS011;60444;43.534;-5.674;2024-03-08T01:36:07;2.35;;;0.65;;
72437;SDS011;60444;43.534;-5.674;2024-03-08T01:38:33;2.23;;;0.60;;
72437;SDS011;60444;43.534;-5.674;2024-03-08T01:40:58;1.80;;;0.45;;
72437;SDS011;60444;43.534;-5.674;2024-03-08T01:43:25;1.37;;;0.37;;
72437;SDS011;60444;43.534;-5.674;2024-03-08T01:45:53;2.00;;;0.50;;
72437;SDS011;60444;43.534;-5.674;2024-03-08T01:48:20;2.70;;;0.68;;
72437;SDS011;60444;43.534;-5.674;2024-03-08T01:50:49;1.02;;;0.40;;
72437;SDS011;60444;43.534;-5.674;2024-03-08T01:53:15;1.42;;;0.30;;
72437;SDS011;60444;43.534;-5.674;2024-03-08T01:55:44;2.17;;;0.43;;
72437;SDS011;60444;43.534;-5.674;2024-03-08T01:58:11;1.77;;;0.38;;
72437;SDS011;60444;43.534;-5.674;2024-03-08T02:00:40;2.17;;;0.40;;
72437;SDS011;60444;43.534;-5.674;2024-03-08T02:03:08;1.30;;;0.38;;
72437;SDS011;60444;43.534;-5.674;2024-03-08T02:05:35;1.92;;;0.40;;
72437;SDS011;60444;43.534;-5.674;2024-03-08T02:08:03;1.60;;;0.33;;
72437;SDS011;60444;43.534;-5.674;2024-03-08T02:10:32;2.40;;;0.50;;
72437;SDS011;60444;43.534;-5.674;2024-03-08T02:12:58;1.65;;;0.40;;
72437;SDS011;60444;43.534;-5.674;2024-03-08T02:15:26;2.20;;;0.40;;
72437;SDS011;60444;43.534;-5.674;2024-03-08T02:17:51;2.53;;;0.30;;
72437;SDS011;60444;43.534;-5.674;2024-03-08T02:20:18;2.22;;;0.50;;
72437;SDS011;60444;43.534;-5.674;2024-03-08T02:22:44;1.40;;;0.40;;
72437;SDS011;60444;43.534;-5.674;2024-03-08T02:25:10;2.83;;;0.50;;
72437;SDS011;60444;43.534;-5.674;2024-03-08T02:27:36;2.60;;;0.50;;
72437;SDS011;60444;43.534;-5.674;2024-03-08T02:30:03;2.15;;;0.40;;
72437;SDS011;60444;43.534;-5.674;2024-03-08T02:32:30;2.15;;;0.40;;
72437;SDS011;60444;43.534;-5.674;2024-03-08T02:34:57;1.63;;;0.50;;
72437;SDS011;60444;43.534;-5.674;2024-03-08T02:37:25;1.17;;;0.30;;
72437;SDS011;60444;43.534;-5.674;2024-03-08T02:39:50;1.65;;;0.30;;
72437;SDS011;60444;43.534;-5.674;2024-03-08T02:42:16;1.07;;;0.30;;
72437;SDS011;60444;43.534;-5.674;2024-03-08T02:44:44;1.80;;;0.40;;
72437;SDS011;60444;43.534;-5.674;2024-03-08T02:47:10;1.23;;;0.30;;
72437;SDS011;60444;43.534;-5.674;2024-03-08T02:49:36;1.40;;;0.30;;
72437;SDS011;60444;43.534;-5.674;2024-03-08T02:52:03;1.37;;;0.30;;
72437;SDS011;60444;43.534;-5.674;2024-03-08T02:54:30;2.10;;;0.32;;
72437;SDS011;60444;43.534;-5.674;2024-03-08T02:56:55;1.20;;;0.30;;
72437;SDS011;60444;43.534;-5.674;2024-03-08T02:59:21;1.07;;;0.23;;
72437;SDS011;60444;43.534;-5.674;2024-03-08T03:01:47;1.85;;;0.40;;
72437;SDS011;60444;43.534;-5.674;2024-03-08T03:04:12;1.63;;;0.30;;
72437;SDS011;60444;43.534;-5.674;2024-03-08T03:06:38;1.67;;;0.50;;
72437;SDS011;60444;43.534;-5.674;2024-03-08T03:09:03;1.30;;;0.40;;
72437;SDS011;60444;43.534;-5.674;2024-03-08T03:11:31;1.48;;;0.30;;
72437;SDS011;60444;43.534;-5.674;2024-03-08T03:13:57;1.50;;;0.30;;
72437;SDS011;60444;43.534;-5.674;2024-03-08T03:16:22;1.58;;;0.40;;
72437;SDS011;60444;43.534;-5.674;2024-03-08T03:18:49;1.35;;;0.40;;
72437;SDS011;60444;43.534;-5.674;2024-03-08T03:21:14;1.47;;;0.40;;
72437;SDS011;60444;43.534;-5.674;2024-03-08T03:23:40;1.33;;;0.30;;
72437;SDS011;60444;43.534;-5.674;2024-03-08T03:26:07;1.13;;;0.30;;
72437;SDS011;60444;43.534;-5.674;2024-03-08T03:28:38;1.50;;;0.40;;
72437;SDS011;60444;43.534;-5.674;2024-03-08T03:31:07;1.33;;;0.30;;
72437;SDS011;60444;43.534;-5.674;2024-03-08T03:33:39;1.67;;;0.40;;
72437;SDS011;60444;43.534;-5.674;2024-03-08T03:36:05;1.17;;;0.30;;
72437;SDS011;60444;43.534;-5.674;2024-03-08T03:38:30;1.13;;;0.30;;
72437;SDS011;60444;43.534;-5.674;2024-03-08T03:40:56;2.45;;;0.43;;
72437;SDS011;60444;43.534;-5.674;2024-03-08T03:43:29;1.67;;;0.40;;
72437;SDS011;60444;43.534;-5.674;2024-03-08T03:45:56;0.90;;;0.30;;
72437;SDS011;60444;43.534;-5.674;2024-03-08T03:48:21;1.73;;;0.37;;
72437;SDS011;60444;43.534;-5.674;2024-03-08T03:50:47;1.00;;;0.30;;
72437;SDS011;60444;43.534;-5.674;2024-03-08T03:53:12;1.10;;;0.47;;
72437;SDS011;60444;43.534;-5.674;2024-03-08T03:55:38;1.75;;;0.40;;
72437;SDS011;60444;43.534;-5.674;2024-03-08T03:58:04;1.97;;;0.30;;
72437;SDS011;60444;43.534;-5.674;2024-03-08T04:00:29;1.50;;;0.30;;
72437;SDS011;60444;43.534;-5.674;2024-03-08T04:02:55;1.83;;;0.40;;
72437;SDS011;60444;43.534;-5.674;2024-03-08T04:05:24;1.20;;;0.30;;
72437;SDS011;60444;43.534;-5.674;2024-03-08T04:07:49;1.58;;;0.30;;
72437;SDS011;60444;43.534;-5.674;2024-03-08T04:10:15;1.50;;;0.30;;
72437;SDS011;60444;43.534;-5.674;2024-03-08T04:12:40;1.40;;;0.40;;
72437;SDS011;60444;43.534;-5.674;2024-03-08T04:15:06;2.13;;;0.50;;
72437;SDS011;60444;43.534;-5.674;2024-03-08T04:17:33;1.33;;;0.40;;
72437;SDS011;60444;43.534;-5.674;2024-03-08T04:20:04;1.75;;;0.40;;
72437;SDS011;60444;43.534;-5.674;2024-03-08T04:22:35;1.52;;;0.40;;
72437;SDS011;60444;43.534;-5.674;2024-03-08T04:25:02;2.23;;;0.40;;
72437;SDS011;60444;43.534;-5.674;2024-03-08T04:27:28;1.20;;;0.30;;
72437;SDS011;60444;43.534;-5.674;2024-03-08T04:29:53;1.83;;;0.30;;
72437;SDS011;60444;43.534;-5.674;2024-03-08T04:32:19;1.75;;;0.30;;
72437;SDS011;60444;43.534;-5.674;2024-03-08T04:34:44;1.67;;;0.40;;
72437;SDS011;60444;43.534;-5.674;2024-03-08T04:37:10;2.03;;;0.37;;
72437;SDS011;60444;43.534;-5.674;2024-03-08T04:39:39;1.15;;;0.32;;
72437;SDS011;60444;43.534;-5.674;2024-03-08T04:42:04;1.53;;;0.43;;
72437;SDS011;60444;43.534;-5.674;2024-03-08T04:44:39;1.52;;;0.35;;
72437;SDS011;60444;43.534;-5.674;2024-03-08T04:47:04;1.70;;;0.40;;
72437;SDS011;60444;43.534;-5.674;2024-03-08T04:49:31;2.25;;;0.50;;
72437;SDS011;60444;43.534;-5.674;2024-03-08T04:52:03;1.92;;;0.38;;
72437;SDS011;60444;43.534;-5.674;2024-03-08T04:54:29;1.00;;;0.30;;
72437;SDS011;60444;43.534;-5.674;2024-03-08T04:56:58;2.17;;;0.50;;
72437;SDS011;60444;43.534;-5.674;2024-03-08T04:59:25;1.45;;;0.40;;
72437;SDS011;60444;43.534;-5.674;2024-03-08T05:01:52;1.67;;;0.30;;
72437;SDS011;60444;43.534;-5.674;2024-03-08T05:04:17;1.87;;;0.37;;
72437;SDS011;60444;43.534;-5.674;2024-03-08T05:06:43;0.75;;;0.25;;
72437;SDS011;60444;43.534;-5.674;2024-03-08T05:09:08;1.50;;;0.40;;
72437;SDS011;60444;43.534;-5.674;2024-03-08T05:11:41;1.10;;;0.30;;
72437;SDS011;60444;43.534;-5.674;2024-03-08T05:14:10;1.50;;;0.40;;
72437;SDS011;60444;43.534;-5.674;2024-03-08T05:16:36;1.20;;;0.40;;
72437;SDS011;60444;43.534;-5.674;2024-03-08T05:19:02;2.10;;;0.40;;
72437;SDS011;60444;43.534;-5.674;2024-03-08T05:21:28;1.00;;;0.40;;
72437;SDS011;60444;43.534;-5.674;2024-03-08T05:23:56;1.60;;;0.40;;
72437;SDS011;60444;43.534;-5.674;2024-03-08T05:26:21;1.53;;;0.30;;
72437;SDS011;60444;43.534;-5.674;2024-03-08T05:28:50;1.75;;;0.30;;
72437;SDS011;60444;43.534;-5.674;2024-03-08T05:31:21;1.83;;;0.40;;
72437;SDS011;60444;43.534;-5.674;2024-03-08T05:33:48;1.60;;;0.40;;
72437;SDS011;60444;43.534;-5.674;2024-03-08T05:36:14;1.83;;;0.50;;
72437;SDS011;60444;43.534;-5.674;2024-03-08T05:38:42;2.67;;;0.70;;
72437;SDS011;60444;43.534;-5.674;2024-03-08T05:41:08;2.33;;;0.50;;
72437;SDS011;60444;43.534;-5.674;2024-03-08T05:43:35;2.90;;;0.60;;
72437;SDS011;60444;43.534;-5.674;2024-03-08T05:46:00;2.87;;;0.73;;
72437;SDS011;60444;43.534;-5.674;2024-03-08T05:48:26;2.10;;;0.60;;
72437;SDS011;60444;43.534;-5.674;2024-03-08T05:50:53;3.08;;;0.95;;
72437;SDS011;60444;43.534;-5.674;2024-03-08T05:53:18;3.03;;;0.60;;
72437;SDS011;60444;43.534;-5.674;2024-03-08T05:55:44;3.22;;;0.60;;
72437;SDS011;60444;43.534;-5.674;2024-03-08T05:58:10;1.67;;;0.50;;
72437;SDS011;60444;43.534;-5.674;2024-03-08T06:00:36;3.63;;;0.80;;
72437;SDS011;60444;43.534;-5.674;2024-03-08T06:03:02;2.10;;;0.50;;
72437;SDS011;60444;43.534;-5.674;2024-03-08T06:05:30;2.70;;;0.57;;
72437;SDS011;60444;43.534;-5.674;2024-03-08T06:07:55;2.03;;;0.57;;
72437;SDS011;60444;43.534;-5.674;2024-03-08T06:10:21;2.80;;;0.80;;
72437;SDS011;60444;43.534;-5.674;2024-03-08T06:12:47;3.15;;;0.80;;
72437;SDS011;60444;43.534;-5.674;2024-03-08T06:15:12;2.33;;;0.40;;
72437;SDS011;60444;43.534;-5.674;2024-03-08T06:17:40;3.15;;;0.70;;
72437;SDS011;60444;43.534;-5.674;2024-03-08T06:20:06;3.95;;;1.10;;
72437;SDS011;60444;43.534;-5.674;2024-03-08T06:22:37;3.40;;;0.80;;
72437;SDS011;60444;43.534;-5.674;2024-03-08T06:25:05;3.60;;;0.93;;
72437;SDS011;60444;43.534;-5.674;2024-03-08T06:27:32;3.63;;;0.90;;
72437;SDS011;60444;43.534;-5.674;2024-03-08T06:29:59;3.05;;;0.90;;
72437;SDS011;60444;43.534;-5.674;2024-03-08T06:32:29;4.57;;;0.75;;
72437;SDS011;60444;43.534;-5.674;2024-03-08T06:34:55;4.70;;;0.83;;
72437;SDS011;60444;43.534;-5.674;2024-03-08T06:37:22;4.72;;;0.90;;
72437;SDS011;60444;43.534;-5.674;2024-03-08T06:39:48;3.73;;;0.70;;
72437;SDS011;60444;43.534;-5.674;2024-03-08T06:42:16;3.33;;;0.70;;
72437;SDS011;60444;43.534;-5.674;2024-03-08T06:44:42;5.97;;;0.80;;
72437;SDS011;60444;43.534;-5.674;2024-03-08T06:47:14;7.00;;;1.23;;
72437;SDS011;60444;43.534;-5.674;2024-03-08T06:49:41;7.43;;;1.50;;
72437;SDS011;60444;43.534;-5.674;2024-03-08T06:52:10;3.57;;;0.63;;
72437;SDS011;60444;43.534;-5.674;2024-03-08T06:54:36;4.47;;;0.90;;
72437;SDS011;60444;43.534;-5.674;2024-03-08T06:57:05;4.53;;;1.23;;
72437;SDS011;60444;43.534;-5.674;2024-03-08T06:59:31;5.10;;;1.23;;
72437;SDS011;60444;43.534;-5.674;2024-03-08T07:01:57;3.92;;;1.00;;
72437;SDS011;60444;43.534;-5.674;2024-03-08T07:04:24;4.80;;;1.17;;
72437;SDS011;60444;43.534;-5.674;2024-03-08T07:06:54;3.70;;;1.00;;
72437;SDS011;60444;43.534;-5.674;2024-03-08T07:09:23;4.50;;;0.60;;
72437;SDS011;60444;43.534;-5.674;2024-03-08T07:11:49;3.23;;;0.90;;
72437;SDS011;60444;43.534;-5.674;2024-03-08T07:14:22;5.22;;;1.23;;
72437;SDS011;60444;43.534;-5.674;2024-03-08T07:16:49;3.58;;;0.90;;
72437;SDS011;60444;43.534;-5.674;2024-03-08T07:19:15;4.10;;;0.70;;
72437;SDS011;60444;43.534;-5.674;2024-03-08T07:21:41;4.82;;;0.95;;
72437;SDS011;60444;43.534;-5.674;2024-03-08T07:24:10;4.27;;;0.93;;
72437;SDS011;60444;43.534;-5.674;2024-03-08T07:26:42;12.00;;;2.22;;
72437;SDS011;60444;43.534;-5.674;2024-03-08T07:29:08;9.70;;;2.22;;
72437;SDS011;60444;43.534;-5.674;2024-03-08T07:31:34;4.03;;;1.00;;
72437;SDS011;60444;43.534;-5.674;2024-03-08T07:34:02;4.53;;;0.80;;
72437;SDS011;60444;43.534;-5.674;2024-03-08T07:36:28;4.22;;;0.90;;
72437;SDS011;60444;43.534;-5.674;2024-03-08T07:38:54;8.17;;;1.40;;
72437;SDS011;60444;43.534;-5.674;2024-03-08T07:41:19;6.72;;;1.30;;
72437;SDS011;60444;43.534;-5.674;2024-03-08T07:43:45;4.67;;;1.17;;
72437;SDS011;60444;43.534;-5.674;2024-03-08T07:46:11;5.18;;;1.20;;
72437;SDS011;60444;43.534;-5.674;2024-03-08T07:48:38;5.72;;;1.45;;
72437;SDS011;60444;43.534;-5.674;2024-03-08T07:51:05;4.00;;;1.13;;
72437;SDS011;60444;43.534;-5.674;2024-03-08T07:53:30;6.35;;;1.42;;
72437;SDS011;60444;43.534;-5.674;2024-03-08T07:55:56;4.30;;;0.87;;
72437;SDS011;60444;43.534;-5.674;2024-03-08T07:58:22;7.20;;;1.20;;
72437;SDS011;60444;43.534;-5.674;2024-03-08T08:00:48;5.90;;;1.15;;
72437;SDS011;60444;43.534;-5.674;2024-03-08T08:03:14;7.00;;;1.20;;
72437;SDS011;60444;43.534;-5.674;2024-03-08T08:05:41;3.92;;;0.90;;
72437;SDS011;60444;43.534;-5.674;2024-03-08T08:08:10;5.32;;;1.20;;
72437;SDS011;60444;43.534;-5.674;2024-03-08T08:10:35;4.53;;;0.73;;
72437;SDS011;60444;43.534;-5.674;2024-03-08T08:13:02;3.70;;;0.90;;
72437;SDS011;60444;43.534;-5.674;2024-03-08T08:15:29;5.00;;;0.90;;
72437;SDS011;60444;43.534;-5.674;2024-03-08T08:17:55;6.43;;;1.52;;
72437;SDS011;60444;43.534;-5.674;2024-03-08T08:20:20;5.20;;;1.20;;
72437;SDS011;60444;43.534;-5.674;2024-03-08T08:22:47;4.65;;;0.98;;
72437;SDS011;60444;43.534;-5.674;2024-03-08T08:25:13;5.13;;;1.00;;
72437;SDS011;60444;43.534;-5.674;2024-03-08T08:27:40;4.03;;;1.17;;
72437;SDS011;60444;43.534;-5.674;2024-03-08T08:30:07;5.80;;;0.83;;
72437;SDS011;60444;43.534;-5.674;2024-03-08T08:32:37;4.38;;;1.00;;
72437;SDS011;60444;43.534;-5.674;2024-03-08T08:35:07;4.72;;;0.90;;
72437;SDS011;60444;43.534;-5.674;2024-03-08T08:37:40;4.15;;;0.93;;
72437;SDS011;60444;43.534;-5.674;2024-03-08T08:40:06;4.90;;;0.90;;
72437;SDS011;60444;43.534;-5.674;2024-03-08T08:42:39;4.63;;;0.80;;
72437;SDS011;60444;43.534;-5.674;2024-03-08T08:45:05;4.80;;;1.00;;
72437;SDS011;60444;43.534;-5.674;2024-03-08T08:47:37;4.03;;;0.70;;
72437;SDS011;60444;43.534;-5.674;2024-03-08T08:50:03;4.75;;;0.80;;
72437;SDS011;60444;43.534;-5.674;2024-03-08T08:52:30;4.43;;;0.98;;
72437;SDS011;60444;43.534;-5.674;2024-03-08T08:55:03;3.73;;;0.80;;
72437;SDS011;60444;43.534;-5.674;2024-03-08T08:57:29;5.03;;;0.90;;
72437;SDS011;60444;43.534;-5.674;2024-03-08T08:59:58;4.28;;;1.17;;
72437;SDS011;60444;43.534;-5.674;2024-03-08T09:02:23;4.75;;;1.15;;
72437;SDS011;60444;43.534;-5.674;2024-03-08T09:04:50;5.37;;;1.00;;
72437;SDS011;60444;43.534;-5.674;2024-03-08T09:07:16;4.32;;;1.13;;
72437;SDS011;60444;43.534;-5.674;2024-03-08T09:09:46;5.00;;;1.10;;
72437;SDS011;60444;43.534;-5.674;2024-03-08T09:12:12;5.10;;;1.40;;
72437;SDS011;60444;43.534;-5.674;2024-03-08T09:14:39;5.00;;;1.30;;
72437;SDS011;60444;43.534;-5.674;2024-03-08T09:17:05;6.78;;;1.33;;
72437;SDS011;60444;43.534;-5.674;2024-03-08T09:19:34;6.20;;;1.05;;
72437;SDS011;60444;43.534;-5.674;2024-03-08T09:22:00;5.47;;;1.40;;
72437;SDS011;60444;43.534;-5.674;2024-03-08T09:24:26;4.03;;;1.03;;
72437;SDS011;60444;43.534;-5.674;2024-03-08T09:26:51;5.53;;;0.90;;
72437;SDS011;60444;43.534;-5.674;2024-03-08T09:29:17;4.95;;;0.77;;
72437;SDS011;60444;43.534;-5.674;2024-03-08T09:31:42;4.87;;;0.73;;
72437;SDS011;60444;43.534;-5.674;2024-03-08T09:34:09;4.70;;;0.85;;
72437;SDS011;60444;43.534;-5.674;2024-03-08T09:36:35;3.95;;;0.90;;
72437;SDS011;60444;43.534;-5.674;2024-03-08T09:39:00;2.63;;;0.50;;
72437;SDS011;60444;43.534;-5.674;2024-03-08T09:41:26;3.05;;;0.50;;
72437;SDS011;60444;43.534;-5.674;2024-03-08T09:43:52;3.10;;;0.53;;
72437;SDS011;60444;43.534;-5.674;2024-03-08T09:46:21;3.20;;;0.40;;
72437;SDS011;60444;43.534;-5.674;2024-03-08T09:48:48;1.35;;;0.40;;
72437;SDS011;60444;43.534;-5.674;2024-03-08T09:51:13;2.90;;;0.40;;
72437;SDS011;60444;43.534;-5.674;2024-03-08T09:53:40;1.80;;;0.43;;
72437;SDS011;60444;43.534;-5.674;2024-03-08T09:56:07;4.00;;;0.70;;
72437;SDS011;60444;43.534;-5.674;2024-03-08T09:58:33;2.90;;;0.60;;
72437;SDS011;60444;43.534;-5.674;2024-03-08T10:00:59;2.03;;;0.30;;
72437;SDS011;60444;43.534;-5.674;2024-03-08T10:03:29;3.00;;;0.50;;
72437;SDS011;60444;43.534;-5.674;2024-03-08T10:05:58;2.22;;;0.50;;
72437;SDS011;60444;43.534;-5.674;2024-03-08T10:08:29;1.75;;;0.43;;
72437;SDS011;60444;43.534;-5.674;2024-03-08T10:10:55;2.70;;;0.55;;
72437;SDS011;60444;43.534;-5.674;2024-03-08T10:13:23;2.85;;;0.50;;
72437;SDS011;60444;43.534;-5.674;2024-03-08T10:15:50;3.00;;;0.57;;
72437;SDS011;60444;43.534;-5.674;2024-03-08T10:18:16;2.47;;;0.47;;
72437;SDS011;60444;43.534;-5.674;2024-03-08T10:20:42;1.73;;;0.30;;
72437;SDS011;60444;43.534;-5.674;2024-03-08T10:23:08;2.83;;;0.60;;
72437;SDS011;60444;43.534;-5.674;2024-03-08T10:25:35;2.40;;;0.40;;
72437;SDS011;60444;43.534;-5.674;2024-03-08T10:28:04;2.97;;;0.50;;
72437;SDS011;60444;43.534;-5.674;2024-03-08T10:30:30;2.28;;;0.47;;
72437;SDS011;60444;43.534;-5.674;2024-03-08T10:32:55;3.22;;;0.55;;
72437;SDS011;60444;43.534;-5.674;2024-03-08T10:35:21;3.77;;;0.53;;
72437;SDS011;60444;43.534;-5.674;2024-03-08T10:37:48;3.92;;;0.75;;
72437;SDS011;60444;43.534;-5.674;2024-03-08T10:40:22;3.05;;;0.40;;
72437;SDS011;60444;43.534;-5.674;2024-03-08T10:42:56;2.72;;;0.60;;
72437;SDS011;60444;43.534;-5.674;2024-03-08T10:48:20;3.88;;;0.70;;
72437;SDS011;60444;43.534;-5.674;2024-03-08T10:51:04;2.35;;;0.50;;
72437;SDS011;60444;43.534;-5.674;2024-03-08T10:53:32;5.63;;;1.20;;
72437;SDS011;60444;43.534;-5.674;2024-03-08T10:55:59;6.00;;;1.73;;
72437;SDS011;60444;43.534;-5.674;2024-03-08T10:58:25;5.37;;;1.27;;
72437;SDS011;60444;43.534;-5.674;2024-03-08T11:00:55;4.13;;;0.80;;
72437;SDS011;60444;43.534;-5.674;2024-03-08T11:06:06;3.97;;;0.57;;
72437;SDS011;60444;43.534;-5.674;2024-03-08T11:08:35;2.67;;;0.50;;
72437;SDS011;60444;43.534;-5.674;2024-03-08T11:11:01;3.35;;;0.80;;
72437;SDS011;60444;43.534;-5.674;2024-03-08T11:16:01;2.53;;;0.47;;
72437;SDS011;60444;43.534;-5.674;2024-03-08T11:18:32;2.17;;;0.50;;
72437;SDS011;60444;43.534;-5.674;2024-03-08T11:21:01;4.93;;;0.70;;
72437;SDS011;60444;43.534;-5.674;2024-03-08T11:23:32;3.42;;;0.40;;
72437;SDS011;60444;43.534;-5.674;2024-03-08T11:25:58;2.95;;;0.57;;
72437;SDS011;60444;43.534;-5.674;2024-03-08T11:28:24;1.80;;;0.47;;
72437;SDS011;60444;43.534;-5.674;2024-03-08T11:33:28;1.55;;;0.40;;
72437;SDS011;60444;43.534;-5.674;2024-03-08T11:36:13;2.05;;;0.40;;
72437;SDS011;60444;43.534;-5.674;2024-03-08T11:38:47;2.20;;;0.40;;
72437;SDS011;60444;43.534;-5.674;2024-03-08T11:41:14;4.23;;;0.50;;
72437;SDS011;60444;43.534;-5.674;2024-03-08T11:43:43;2.85;;;0.47;;
72437;SDS011;60444;43.534;-5.674;2024-03-08T11:46:12;3.28;;;0.60;;
72437;SDS011;60444;43.534;-5.674;2024-03-08T11:48:40;3.28;;;0.55;;
72437;SDS011;60444;43.534;-5.674;2024-03-08T11:51:12;3.10;;;0.50;;
72437;SDS011;60444;43.534;-5.674;2024-03-08T11:53:39;4.37;;;0.60;;
72437;SDS011;60444;43.534;-5.674;2024-03-08T11:56:09;3.50;;;0.73;;
72437;SDS011;60444;43.534;-5.674;2024-03-08T11:58:38;4.03;;;1.05;;
72437;SDS011;60444;43.534;-5.674;2024-03-08T12:01:08;3.42;;;0.75;;
72437;SDS011;60444;43.534;-5.674;2024-03-08T12:03:40;3.70;;;0.70;;
72437;SDS011;60444;43.534;-5.674;2024-03-08T12:06:10;4.43;;;0.73;;
72437;SDS011;60444;43.534;-5.674;2024-03-08T12:08:38;3.75;;;0.60;;
72437;SDS011;60444;43.534;-5.674;2024-03-08T12:11:04;3.05;;;0.47;;
72437;SDS011;60444;43.534;-5.674;2024-03-08T12:13:30;3.85;;;0.60;;
72437;SDS011;60444;43.534;-5.674;2024-03-08T12:15:57;1.30;;;0.40;;
72437;SDS011;60444;43.534;-5.674;2024-03-08T12:18:26;3.33;;;0.60;;
72437;SDS011;60444;43.534;-5.674;2024-03-08T12:21:08;5.60;;;0.40;;
72437;SDS011;60444;43.534;-5.674;2024-03-08T12:23:45;3.80;;;0.50;;
72437;SDS011;60444;43.534;-5.674;2024-03-08T12:26:17;2.47;;;0.40;;
72437;SDS011;60444;43.534;-5.674;2024-03-08T12:28:48;2.28;;;0.57;;
72437;SDS011;60444;43.534;-5.674;2024-03-08T12:31:14;2.60;;;0.43;;
72437;SDS011;60444;43.534;-5.674;2024-03-08T12:36:14;3.05;;;0.60;;
72437;SDS011;60444;43.534;-5.674;2024-03-08T12:38:43;3.20;;;0.65;;
72437;SDS011;60444;43.534;-5.674;2024-03-08T12:41:13;1.40;;;0.30;;
72437;SDS011;60444;43.534;-5.674;2024-03-08T12:43:43;3.70;;;0.60;;
72437;SDS011;60444;43.534;-5.674;2024-03-08T12:48:46;2.10;;;0.60;;
72437;SDS011;60444;43.534;-5.674;2024-03-08T12:51:15;1.98;;;0.40;;
72437;SDS011;60444;43.534;-5.674;2024-03-08T12:53:43;1.88;;;0.38;;
72437;SDS011;60444;43.534;-5.674;2024-03-08T12:56:09;2.13;;;0.50;;
72437;SDS011;60444;43.534;-5.674;2024-03-08T12:58:36;2.92;;;0.68;;
72437;SDS011;60444;43.534;-5.674;2024-03-08T13:01:05;3.40;;;0.70;;
72437;SDS011;60444;43.534;-5.674;2024-03-08T13:03:32;2.85;;;0.50;;
72437;SDS011;60444;43.534;-5.674;2024-03-08T13:06:00;2.38;;;0.52;;
72437;SDS011;60444;43.534;-5.674;2024-03-08T13:08:26;2.07;;;0.53;;
72437;SDS011;60444;43.534;-5.674;2024-03-08T13:10:54;1.48;;;0.40;;
72437;SDS011;60444;43.534;-5.674;2024-03-08T13:13:20;2.10;;;0.50;;
72437;SDS011;60444;43.534;-5.674;2024-03-08T13:15:45;2.90;;;0.45;;
72437;SDS011;60444;43.534;-5.674;2024-03-08T13:18:11;2.23;;;0.40;;
72437;SDS011;60444;43.534;-5.674;2024-03-08T13:20:37;3.23;;;0.50;;
72437;SDS011;60444;43.534;-5.674;2024-03-08T13:23:06;4.38;;;0.50;;
72437;SDS011;60444;43.534;-5.674;2024-03-08T13:25:33;1.73;;;0.50;;
72437;SDS011;60444;43.534;-5.674;2024-03-08T13:27:59;3.77;;;0.70;;
72437;SDS011;60444;43.534;-5.674;2024-03-08T13:30:25;8.10;;;3.00;;
72437;SDS011;60444;43.534;-5.674;2024-03-08T13:32:52;2.90;;;0.60;;
72437;SDS011;60444;43.534;-5.674;2024-03-08T13:35:18;2.88;;;0.60;;
72437;SDS011;60444;43.534;-5.674;2024-03-08T13:37:49;3.35;;;0.70;;
72437;SDS011;60444;43.534;-5.674;2024-03-08T13:40:16;3.53;;;0.80;;
72437;SDS011;60444;43.534;-5.674;2024-03-08T13:42:48;2.22;;;0.52;;
72437;SDS011;60444;43.534;-5.674;2024-03-08T13:45:14;3.45;;;0.60;;
72437;SDS011;60444;43.534;-5.674;2024-03-08T13:47:43;3.00;;;0.50;;
72437;SDS011;60444;43.534;-5.674;2024-03-08T13:50:09;2.65;;;0.70;;
72437;SDS011;60444;43.534;-5.674;2024-03-08T13:52:39;2.50;;;0.63;;
72437;SDS011;60444;43.534;-5.674;2024-03-08T13:55:05;4.30;;;1.10;;
72437;SDS011;60444;43.534;-5.674;2024-03-08T13:57:32;2.47;;;0.65;;
72437;SDS011;60444;43.534;-5.674;2024-03-08T13:59:58;4.45;;;1.15;;
72437;SDS011;60444;43.534;-5.674;2024-03-08T14:02:24;4.38;;;0.68;;
72437;SDS011;60444;43.534;-5.674;2024-03-08T14:04:56;3.00;;;0.83;;
72437;SDS011;60444;43.534;-5.674;2024-03-08T14:07:22;3.35;;;0.98;;
72437;SDS011;60444;43.534;-5.674;2024-03-08T14:09:48;3.25;;;0.90;;
72437;SDS011;60444;43.534;-5.674;2024-03-08T14:12:18;3.85;;;0.60;;
72437;SDS011;60444;43.534;-5.674;2024-03-08T14:14:44;4.38;;;0.70;;
72437;SDS011;60444;43.534;-5.674;2024-03-08T14:17:09;2.87;;;0.80;;
72437;SDS011;60444;43.534;-5.674;2024-03-08T14:19:36;3.03;;;0.80;;
72437;SDS011;60444;43.534;-5.674;2024-03-08T14:22:04;3.47;;;0.85;;
72437;SDS011;60444;43.534;-5.674;2024-03-08T14:24:35;3.10;;;0.60;;
72437;SDS011;60444;43.534;-5.674;2024-03-08T14:27:01;3.58;;;0.77;;
72437;SDS011;60444;43.534;-5.674;2024-03-08T14:29:30;2.83;;;0.70;;
72437;SDS011;60444;43.534;-5.674;2024-03-08T14:31:57;4.68;;;0.88;;
72437;SDS011;60444;43.534;-5.674;2024-03-08T14:34:24;5.73;;;0.90;;
72437;SDS011;60444;43.534;-5.674;2024-03-08T14:36:54;4.32;;;0.80;;
72437;SDS011;60444;43.534;-5.674;2024-03-08T14:39:20;8.65;;;2.25;;
72437;SDS011;60444;43.534;-5.674;2024-03-08T14:41:54;5.63;;;0.82;;
72437;SDS011;60444;43.534;-5.674;2024-03-08T14:44:21;4.38;;;0.80;;
72437;SDS011;60444;43.534;-5.674;2024-03-08T14:46:56;5.03;;;1.00;;
72437;SDS011;60444;43.534;-5.674;2024-03-08T14:49:22;3.95;;;1.00;;